Time;durP1;ratioP1;P1;durP2;ratioP2;P2;SDS_P1;SDS_P2;PMS_P1;PMS_P2;Temp;Humidity;BMP_temperature;BMP_pressure;BME280_temperature;BME280_humidity;BME280_pressure;Samples;Min_cycle;Max_cycle;Signal;HPM_P1;HPM_P2
2023/06/29 00:05:45;;;;;;;19.53;16.83;;;;;;;;;;4972484;28;20251;-68
2023/06/29 00:12:13;;;;;;;17.90;15.73;;;;;;;;;;4988512;28;20230;-68
2023/06/29 00:22:47;;;;;;;16.50;14.73;;;;;;;;;;5007720;28;20198;-67
2023/06/29 00:29:51;;;;;;;17.77;14.83;;;;;;;;;;5008348;28;20347;-68
2023/06/29 00:36:17;;;;;;;17.23;14.40;;;;;;;;;;5007876;28;20767;-67
2023/06/29 00:42:43;;;;;;;16.00;14.30;;;;;;;;;;4985445;28;20786;-67
2023/06/29 00:49:09;;;;;;;18.73;14.17;;;;;;;;;;5009117;28;20307;-67
2023/06/29 01:31:45;;;;;;;17.53;14.80;;;;;;;;;;4968001;28;20220;-68
2023/06/29 01:42:44;;;;;;;16.87;15.13;;;;;;;;;;4899988;29;20337;-67
2023/06/29 02:15:25;;;;;;;18.17;15.60;;;;;;;;;;4939085;28;20276;-68
2023/06/29 02:21:51;;;;;;;18.07;15.30;;;;;;;;;;4965247;28;20248;-67
2023/06/29 02:32:16;;;;;;;21.53;16.97;;;;;;;;;;5009768;28;20187;-67
2023/06/29 02:38:42;;;;;;;17.17;15.37;;;;;;;;;;4977841;28;20277;-69
2023/06/29 02:49:14;;;;;;;20.70;16.73;;;;;;;;;;5004382;28;20187;-68
2023/06/29 02:59:40;;;;;;;20.13;15.63;;;;;;;;;;5003706;28;20603;-67
2023/06/29 03:10:02;;;;;;;20.07;16.70;;;;;;;;;;4938877;28;20225;-66
2023/06/29 03:16:28;;;;;;;23.50;16.53;;;;;;;;;;4965653;28;20188;-67
2023/06/29 03:22:55;;;;;;;22.10;17.20;;;;;;;;;;4971420;28;21495;-68
2023/06/29 03:44:49;;;;;;;20.83;15.93;;;;;;;;;;4897129;29;20238;-68
2023/06/29 03:51:15;;;;;;;19.17;14.53;;;;;;;;;;4891990;29;20279;-68
2023/06/29 03:58:23;;;;;;;18.27;13.90;;;;;;;;;;4925753;29;20233;-67
2023/06/29 04:04:49;;;;;;;20.47;13.23;;;;;;;;;;4925588;29;20185;-68
2023/06/29 04:11:15;;;;;;;17.60;13.17;;;;;;;;;;4920548;29;20197;-68
2023/06/29 04:17:41;;;;;;;19.83;12.90;;;;;;;;;;4974208;28;20293;-68
2023/06/29 04:24:07;;;;;;;15.37;11.77;;;;;;;;;;4997136;28;20234;-66
2023/06/29 04:45:49;;;;;;;14.17;10.80;;;;;;;;;;5005487;28;20219;-66
2023/06/29 04:52:18;;;;;;;15.10;10.00;;;;;;;;;;5005638;28;20178;-66
2023/06/29 04:58:45;;;;;;;12.03;9.13;;;;;;;;;;5005253;28;20262;-68
2023/06/29 05:05:12;;;;;;;15.70;8.67;;;;;;;;;;5005635;28;20221;-66
2023/06/29 05:11:39;;;;;;;12.67;7.27;;;;;;;;;;5004986;28;20582;-65
2023/06/29 05:18:05;;;;;;;9.53;6.70;;;;;;;;;;5005517;28;20214;-66
2023/06/29 05:24:32;;;;;;;7.60;5.73;;;;;;;;;;5005485;28;20267;-68
2023/06/29 05:39:49;;;;;;;8.80;5.37;;;;;;;;;;4850513;29;20235;-66
2023/06/29 05:50:16;;;;;;;10.73;5.90;;;;;;;;;;4855290;29;20184;-65
2023/06/29 05:56:35;;;;;;;7.90;5.73;;;;;;;;;;4874143;29;20192;-65
2023/06/29 06:03:12;;;;;;;9.93;5.50;;;;;;;;;;4911805;29;20248;-65
2023/06/29 06:09:39;;;;;;;6.97;5.10;;;;;;;;;;4940394;28;20231;-65
2023/06/29 06:16:42;;;;;;;7.77;4.97;;;;;;;;;;4951324;29;20727;-64
2023/06/29 06:23:08;;;;;;;6.90;4.83;;;;;;;;;;4971316;28;20188;-65
2023/06/29 06:33:39;;;;;;;9.00;4.80;;;;;;;;;;4914753;29;20277;-65
2023/06/29 06:40:08;;;;;;;7.70;4.17;;;;;;;;;;4929318;29;20237;-66
2023/06/29 06:51:02;;;;;;;9.40;3.83;;;;;;;;;;4852842;29;20176;-67
2023/06/29 06:57:22;;;;;;;7.33;3.63;;;;;;;;;;4870550;29;20187;-67
2023/06/29 07:08:21;;;;;;;5.03;2.80;;;;;;;;;;4883396;29;20960;-67
2023/06/29 07:33:58;;;;;;;5.47;2.97;;;;;;;;;;4913734;28;20784;-67
2023/06/29 07:44:29;;;;;;;5.70;2.40;;;;;;;;;;4926320;29;20174;-66
2023/06/29 07:59:57;;;;;;;4.43;2.10;;;;;;;;;;4853525;29;20405;-66
2023/06/29 08:10:38;;;;;;;4.30;2.40;;;;;;;;;;4835876;29;20242;-67
2023/06/29 08:21:40;;;;;;;3.93;2.00;;;;;;;;;;4841688;29;20252;-66
2023/06/29 08:28:45;;;;;;;2.53;2.03;;;;;;;;;;4862852;29;20837;-67
2023/06/29 08:50:31;;;;;;;2.53;2.00;;;;;;;;;;4868471;29;20373;-65
2023/06/29 09:05:20;;;;;;;2.70;1.90;;;;;;;;;;4866371;29;20221;-65
2023/06/29 09:16:18;;;;;;;5.10;2.30;;;;;;;;;;4901137;29;20935;-67
2023/06/29 09:37:45;;;;;;;2.60;1.73;;;;;;;;;;4947866;28;20217;-66
2023/06/29 09:44:16;;;;;;;2.87;1.77;;;;;;;;;;4961810;28;20224;-66
2023/06/29 09:50:49;;;;;;;4.07;1.73;;;;;;;;;;4972051;28;20227;-66
2023/06/29 09:57:18;;;;;;;2.90;1.83;;;;;;;;;;5009001;28;20235;-65
2023/06/29 10:03:46;;;;;;;2.30;1.77;;;;;;;;;;5008074;28;20326;-66
2023/06/29 10:10:14;;;;;;;3.90;1.70;;;;;;;;;;4993935;28;20212;-67
2023/06/29 10:16:44;;;;;;;4.03;1.50;;;;;;;;;;5008046;28;20234;-66
2023/06/29 10:23:47;;;;;;;2.63;1.40;;;;;;;;;;5008741;28;20194;-66
2023/06/29 10:30:51;;;;;;;2.37;1.50;;;;;;;;;;4988357;28;20288;-67
2023/06/29 11:45:45;;;;;;;3.13;1.50;;;;;;;;;;4908081;29;20687;-67
2023/06/29 11:52:50;;;;;;;2.03;1.40;;;;;;;;;;4829327;29;20200;-70
2023/06/29 12:10:19;;;;;;;3.43;1.80;;;;;;;;;;4944322;28;20239;-66
2023/06/29 12:25:47;;;;;;;2.17;1.10;;;;;;;;;;4896486;29;20301;-66
2023/06/29 12:44:10;;;;;;;3.60;1.47;;;;;;;;;;4943103;28;20227;-66
2023/06/29 12:50:30;;;;;;;2.77;1.40;;;;;;;;;;4958474;28;20234;-66
2023/06/29 12:57:07;;;;;;;4.10;1.60;;;;;;;;;;4947559;28;20262;-66
2023/06/29 13:03:33;;;;;;;3.33;1.33;;;;;;;;;;4959380;28;20705;-66
2023/06/29 13:47:27;;;;;;;3.83;1.50;;;;;;;;;;4948331;28;20238;-66
2023/06/29 13:53:53;;;;;;;3.80;1.67;;;;;;;;;;4948546;28;20231;-64
2023/06/29 14:00:55;;;;;;;2.43;1.57;;;;;;;;;;4935366;28;20584;-65
2023/06/29 14:07:34;;;;;;;3.60;1.73;;;;;;;;;;4920222;28;20276;-65
2023/06/29 14:13:56;;;;;;;3.83;1.60;;;;;;;;;;4938573;28;20256;-64
2023/06/29 14:20:23;;;;;;;4.60;1.83;;;;;;;;;;4939538;28;20254;-63
2023/06/29 14:26:49;;;;;;;6.57;1.87;;;;;;;;;;4926082;28;20311;-64
2023/06/29 14:33:28;;;;;;;4.30;1.50;;;;;;;;;;4945426;28;20266;-64
2023/06/29 14:39:54;;;;;;;3.77;1.40;;;;;;;;;;4938664;28;20251;-67
2023/06/29 14:50:31;;;;;;;2.23;1.40;;;;;;;;;;4978364;28;20238;-67
2023/06/29 14:56:57;;;;;;;2.13;1.43;;;;;;;;;;4981213;28;20579;-68
2023/06/29 15:03:24;;;;;;;6.30;1.60;;;;;;;;;;4969057;28;20230;-67
2023/06/29 15:09:52;;;;;;;3.57;1.83;;;;;;;;;;4998957;28;20191;-67
2023/06/29 15:23:53;;;;;;;3.87;1.73;;;;;;;;;;4988498;28;20327;-70
2023/06/29 15:30:19;;;;;;;13.07;2.83;;;;;;;;;;5007603;28;20899;-60
2023/06/29 15:36:45;;;;;;;4.87;1.80;;;;;;;;;;5008383;28;20177;-59
2023/06/29 15:43:11;;;;;;;5.10;1.70;;;;;;;;;;5008409;28;20168;-60
2023/06/29 15:53:49;;;;;;;2.93;1.87;;;;;;;;;;5008362;28;20223;-60
2023/06/29 16:00:16;;;;;;;4.97;1.90;;;;;;;;;;5008430;28;20249;-61
2023/06/29 16:06:54;;;;;;;4.07;1.70;;;;;;;;;;5008330;28;20555;-65
2023/06/29 16:13:20;;;;;;;11.00;2.10;;;;;;;;;;4931411;29;20313;-58
2023/06/29 16:19:58;;;;;;;7.83;2.00;;;;;;;;;;4988044;28;20312;-58
2023/06/29 16:26:24;;;;;;;3.03;1.70;;;;;;;;;;4987977;28;20229;-59
2023/06/29 16:33:01;;;;;;;3.17;1.70;;;;;;;;;;4988127;28;20332;-61
2023/06/29 16:39:28;;;;;;;4.90;1.60;;;;;;;;;;4987962;28;20214;-66
2023/06/29 16:45:54;;;;;;;14.40;2.17;;;;;;;;;;4955532;28;20278;-68
2023/06/29 17:00:55;;;;;;;3.00;1.50;;;;;;;;;;4986996;28;20196;-65
2023/06/29 17:07:21;;;;;;;1.90;1.50;;;;;;;;;;4981449;28;20191;-66
2023/06/29 17:13:47;;;;;;;3.10;1.60;;;;;;;;;;4968418;28;20182;-64
2023/06/29 17:20:13;;;;;;;25.10;3.20;;;;;;;;;;4968349;28;20341;-61
2023/06/29 17:26:40;;;;;;;2.50;1.20;;;;;;;;;;4968407;28;20235;-61
2023/06/29 17:33:06;;;;;;;2.07;1.30;;;;;;;;;;4972029;28;20293;-61
2023/06/29 17:39:32;;;;;;;1.40;1.30;;;;;;;;;;4971432;28;20239;-61
2023/06/29 17:46:35;;;;;;;1.87;1.20;;;;;;;;;;4911728;29;20189;-61
2023/06/29 17:53:05;;;;;;;8.23;1.80;;;;;;;;;;4934378;28;20236;-67
2023/06/29 18:04:02;;;;;;;3.67;1.60;;;;;;;;;;4958625;28;20680;-67
2023/06/29 18:10:30;;;;;;;3.30;1.50;;;;;;;;;;4972216;28;20636;-67
2023/06/29 18:16:58;;;;;;;2.33;1.30;;;;;;;;;;4989848;28;20227;-67
2023/06/29 18:23:25;;;;;;;3.53;1.20;;;;;;;;;;4980498;28;20289;-66
2023/06/29 18:29:51;;;;;;;3.07;1.50;;;;;;;;;;4938087;29;20806;-66
2023/06/29 18:36:17;;;;;;;2.13;1.17;;;;;;;;;;4942308;28;21926;-67
2023/06/29 19:13:22;;;;;;;1.53;1.30;;;;;;;;;;4934535;29;20716;-66
2023/06/29 19:19:48;;;;;;;3.13;1.50;;;;;;;;;;4950068;29;20224;-66
2023/06/29 19:26:14;;;;;;;2.00;1.50;;;;;;;;;;4945588;28;20293;-67
2023/06/29 19:32:40;;;;;;;3.17;1.17;;;;;;;;;;4939782;28;20312;-66
2023/06/29 19:39:05;;;;;;;2.87;1.73;;;;;;;;;;4939790;28;20236;-68
2023/06/29 19:45:31;;;;;;;2.03;1.10;;;;;;;;;;4905728;28;20229;-67
2023/06/29 19:56:35;;;;;;;2.37;1.40;;;;;;;;;;4898150;29;20342;-66
2023/06/29 20:07:05;;;;;;;5.27;1.70;;;;;;;;;;4938276;29;20659;-66
2023/06/29 20:13:33;;;;;;;3.03;1.80;;;;;;;;;;4947240;29;20185;-68
2023/06/29 20:19:58;;;;;;;3.83;2.13;;;;;;;;;;4947105;29;20277;-67
2023/06/29 20:26:25;;;;;;;4.23;2.20;;;;;;;;;;4964915;28;20176;-67
2023/06/29 20:32:52;;;;;;;3.33;2.30;;;;;;;;;;4968953;28;20272;-67
2023/06/29 20:39:19;;;;;;;5.57;2.33;;;;;;;;;;4968718;28;20203;-67
2023/06/29 20:45:47;;;;;;;2.87;2.43;;;;;;;;;;4968764;28;20257;-67
2023/06/29 20:52:15;;;;;;;6.43;2.67;;;;;;;;;;4968543;28;20200;-67
2023/06/29 20:58:41;;;;;;;3.80;2.53;;;;;;;;;;4968799;28;20367;-67
2023/06/29 21:09:13;;;;;;;5.63;3.20;;;;;;;;;;4991836;28;20175;-67
2023/06/29 21:15:38;;;;;;;5.57;3.23;;;;;;;;;;4969907;28;20180;-67
2023/06/29 21:22:41;;;;;;;5.77;3.47;;;;;;;;;;4969358;28;21225;-67
2023/06/29 21:29:06;;;;;;;5.73;3.50;;;;;;;;;;4988853;28;21139;-67
2023/06/29 21:35:43;;;;;;;7.47;3.90;;;;;;;;;;4988631;28;20264;-67
2023/06/29 21:42:09;;;;;;;4.77;3.57;;;;;;;;;;4988548;28;20211;-68
2023/06/29 21:49:11;;;;;;;6.47;3.63;;;;;;;;;;4949431;29;20173;-67
2023/06/29 21:55:48;;;;;;;6.60;4.00;;;;;;;;;;4968769;28;20712;-67
2023/06/29 22:10:25;;;;;;;5.93;4.20;;;;;;;;;;4955634;28;20675;-68
2023/06/29 22:16:51;;;;;;;6.93;4.10;;;;;;;;;;4892236;29;20273;-67
2023/06/29 22:23:29;;;;;;;5.83;3.90;;;;;;;;;;4970724;28;20184;-67
2023/06/29 22:29:55;;;;;;;9.20;4.47;;;;;;;;;;4971317;28;20181;-67
2023/06/29 22:36:21;;;;;;;7.13;4.33;;;;;;;;;;4970537;28;20241;-67
2023/06/29 22:42:58;;;;;;;7.70;4.50;;;;;;;;;;4970441;28;20232;-67
2023/06/29 22:49:35;;;;;;;6.67;5.00;;;;;;;;;;4970445;28;20258;-67
2023/06/29 22:56:14;;;;;;;6.53;4.13;;;;;;;;;;4970237;28;20177;-67
2023/06/29 23:03:16;;;;;;;6.13;4.33;;;;;;;;;;4950742;29;20193;-66
2023/06/29 23:14:15;;;;;;;7.50;4.67;;;;;;;;;;4969998;28;20538;-67
2023/06/29 23:31:36;;;;;;;7.33;4.67;;;;;;;;;;4891101;29;20239;-67
2023/06/29 23:37:56;;;;;;;8.20;5.53;;;;;;;;;;4969435;28;20623;-67
2023/06/29 23:44:22;;;;;;;8.87;4.93;;;;;;;;;;4969088;28;20181;-68
2023/06/29 23:51:25;;;;;;;8.23;5.00;;;;;;;;;;4969207;28;20188;-68
2023/06/29 23:58:01;;;;;;;5.53;4.47;;;;;;;;;;4968978;28;20357;-68
